Time;durP1;ratioP1;P1;durP2;ratioP2;P2;SDS_P1;SDS_P2;PMS_P1;PMS_P2;Temp;Humidity;BMP_temperature;BMP_pressure;BME280_temperature;BME280_humidity;BME280_pressure;Samples;Min_cycle;Max_cycle;Signal;HPM_P1;HPM_P2
2023/05/08 00:02:18;;;;;;;10.93;9.27;;;13.60;99.90;;;;;;7309881;32;20145;-55
2023/05/08 00:06:20;;;;;;;13.82;9.93;;;13.50;99.90;;;;;;7313500;32;20202;-55
2023/05/08 00:10:22;;;;;;;16.75;10.10;;;13.50;99.90;;;;;;7287927;32;20107;-55
2023/05/08 00:14:23;;;;;;;12.57;10.95;;;13.40;99.90;;;;;;7306844;32;20160;-55
2023/05/08 00:18:25;;;;;;;11.68;9.98;;;13.40;99.90;;;;;;7289526;32;20223;-55
2023/05/08 00:22:27;;;;;;;14.70;10.25;;;13.30;99.90;;;;;;7305241;32;20092;-56
2023/05/08 00:26:29;;;;;;;11.65;8.80;;;13.30;99.90;;;;;;7303133;32;20119;-55
2023/05/08 00:30:30;;;;;;;11.63;9.18;;;13.20;99.90;;;;;;7300442;32;20231;-55
2023/05/08 00:34:32;;;;;;;10.68;9.57;;;13.20;99.90;;;;;;7308155;32;20111;-55
2023/05/08 00:38:35;;;;;;;14.65;9.55;;;13.10;99.90;;;;;;7314435;32;20100;-55
2023/05/08 00:42:37;;;;;;;19.10;9.88;;;13.10;99.90;;;;;;7300686;32;20254;-55
2023/05/08 00:46:40;;;;;;;15.63;10.65;;;13.00;99.90;;;;;;7305435;32;20958;-55
2023/05/08 00:50:43;;;;;;;12.48;9.25;;;13.00;99.90;;;;;;7303199;32;20273;-55
2023/05/08 00:54:45;;;;;;;10.95;9.63;;;13.00;99.90;;;;;;7309174;32;20122;-55
2023/05/08 00:58:47;;;;;;;12.63;9.45;;;13.00;99.90;;;;;;7303225;32;20104;-55
2023/05/08 01:02:49;;;;;;;12.10;9.18;;;13.00;99.90;;;;;;7302299;32;20134;-55
2023/05/08 01:06:51;;;;;;;12.75;9.52;;;12.90;99.90;;;;;;7303749;32;20131;-55
2023/05/08 01:11:05;;;;;;;11.98;8.93;;;12.90;99.90;;;;;;7302285;32;20244;-55
2023/05/08 01:15:28;;;;;;;13.50;9.60;;;12.90;99.90;;;;;;7308217;32;20222;-55
2023/05/08 01:19:51;;;;;;;15.40;9.18;;;12.90;99.90;;;;;;7307295;32;20099;-55
2023/05/08 01:24:23;;;;;;;11.88;9.13;;;12.90;99.90;;;;;;7297799;32;20267;-55
2023/05/08 01:28:34;;;;;;;13.85;8.70;;;12.80;99.90;;;;;;7311018;32;20470;-56
2023/05/08 01:32:40;;;;;;;11.02;9.50;;;12.80;99.90;;;;;;7299420;32;20099;-56
2023/05/08 01:36:53;;;;;;;11.52;9.35;;;12.80;99.90;;;;;;7309377;32;20254;-55
2023/05/08 01:41:23;;;;;;;11.05;8.88;;;12.80;99.90;;;;;;7306873;32;20099;-55
2023/05/08 01:45:30;;;;;;;10.02;8.18;;;12.70;99.90;;;;;;7308606;32;20103;-56
2023/05/08 01:49:42;;;;;;;10.47;8.10;;;12.70;99.90;;;;;;7302599;32;20156;-55
2023/05/08 01:53:49;;;;;;;12.23;7.93;;;12.60;99.90;;;;;;7301026;32;20108;-55
2023/05/08 01:57:54;;;;;;;17.97;10.00;;;12.60;99.90;;;;;;7303505;32;20572;-56
2023/05/08 02:01:59;;;;;;;12.40;8.25;;;12.60;99.90;;;;;;7288023;32;20302;-55
2023/05/08 02:06:03;;;;;;;13.70;9.73;;;12.50;99.90;;;;;;7299775;32;20580;-55
2023/05/08 02:10:06;;;;;;;10.48;8.82;;;12.50;99.90;;;;;;7307788;32;20551;-55
2023/05/08 02:14:10;;;;;;;11.88;8.75;;;12.40;99.90;;;;;;7308486;32;20108;-55
2023/05/08 02:18:14;;;;;;;10.88;8.32;;;12.30;99.90;;;;;;7300358;32;20108;-55
2023/05/08 02:22:18;;;;;;;10.85;8.80;;;12.30;99.90;;;;;;7303506;32;20133;-56
2023/05/08 02:26:22;;;;;;;10.65;8.10;;;12.30;99.90;;;;;;7296938;32;20464;-55
2023/05/08 02:30:25;;;;;;;12.45;9.07;;;12.20;99.90;;;;;;7300164;32;20176;-55
2023/05/08 02:34:29;;;;;;;13.80;9.45;;;12.20;99.90;;;;;;7306406;32;20207;-56
2023/05/08 02:38:31;;;;;;;12.13;8.63;;;12.10;99.90;;;;;;7296245;32;20506;-55
2023/05/08 02:42:33;;;;;;;11.73;8.82;;;12.20;99.90;;;;;;7290476;32;20183;-55
2023/05/08 02:46:59;;;;;;;11.20;8.55;;;12.20;99.90;;;;;;7302114;32;20103;-55
2023/05/08 02:51:18;;;;;;;14.60;8.25;;;12.20;99.90;;;;;;7306745;32;20176;-55
2023/05/08 02:55:23;;;;;;;10.63;8.10;;;12.10;99.90;;;;;;7309868;32;20555;-55
2023/05/08 02:59:35;;;;;;;14.25;7.75;;;12.20;99.90;;;;;;7307874;32;20257;-55
2023/05/08 03:03:44;;;;;;;15.30;8.38;;;12.20;99.90;;;;;;7311954;32;20101;-55
2023/05/08 03:07:49;;;;;;;9.40;7.57;;;12.10;99.90;;;;;;7312341;32;20553;-55
2023/05/08 03:12:01;;;;;;;11.02;8.10;;;12.10;99.90;;;;;;7305790;32;20497;-55
2023/05/08 03:16:05;;;;;;;13.93;8.63;;;12.10;99.90;;;;;;7310142;32;20288;-55
2023/05/08 03:20:11;;;;;;;11.75;7.80;;;12.10;99.90;;;;;;7307376;32;20609;-55
2023/05/08 03:24:16;;;;;;;8.50;7.20;;;12.10;99.90;;;;;;7291007;32;20683;-55
2023/05/08 03:28:18;;;;;;;9.63;7.22;;;12.10;99.90;;;;;;7308500;32;20111;-55
2023/05/08 03:32:23;;;;;;;9.27;8.00;;;12.20;99.90;;;;;;7311813;32;20160;-55
2023/05/08 03:36:25;;;;;;;10.82;8.00;;;12.10;99.90;;;;;;7306399;32;20306;-55
2023/05/08 03:40:27;;;;;;;11.75;8.10;;;12.20;99.90;;;;;;7311421;32;20103;-55
2023/05/08 03:44:30;;;;;;;8.80;7.90;;;12.20;99.90;;;;;;7306812;32;20123;-56
2023/05/08 03:48:34;;;;;;;9.25;8.38;;;12.20;99.90;;;;;;7289113;32;20120;-55
2023/05/08 03:52:36;;;;;;;13.95;8.60;;;12.20;99.90;;;;;;7306184;32;20613;-55
2023/05/08 03:56:38;;;;;;;9.32;7.82;;;12.30;99.90;;;;;;7307717;32;20115;-55
2023/05/08 04:01:15;;;;;;;12.73;8.35;;;12.30;99.90;;;;;;7304830;32;20133;-55
2023/05/08 04:05:33;;;;;;;14.80;9.43;;;12.40;99.90;;;;;;7312231;32;20116;-54
2023/05/08 04:09:37;;;;;;;;;;;12.30;99.90;;;;;;7308164;32;20228;-57
2023/05/08 04:13:47;;;;;;;15.95;9.10;;;12.40;99.90;;;;;;7306966;32;20166;-56
2023/05/08 04:17:54;;;;;;;10.15;8.20;;;12.40;99.90;;;;;;7310801;32;20207;-56
2023/05/08 04:22:05;;;;;;;9.52;8.52;;;12.50;99.90;;;;;;7313458;32;20246;-56
2023/05/08 04:26:09;;;;;;;10.27;9.00;;;12.50;99.90;;;;;;7302711;32;20249;-55
2023/05/08 04:30:12;;;;;;;19.92;9.35;;;12.50;99.90;;;;;;7284149;32;20348;-55
2023/05/08 04:34:14;;;;;;;11.23;9.35;;;12.50;99.90;;;;;;7308835;32;20262;-56
2023/05/08 04:38:16;;;;;;;11.27;8.07;;;12.50;99.90;;;;;;7310226;32;20670;-56
2023/05/08 04:42:26;;;;;;;13.48;9.23;;;12.60;99.90;;;;;;7306321;32;20168;-55
2023/05/08 04:46:28;;;;;;;14.98;9.88;;;12.70;99.90;;;;;;7312505;32;20209;-55
2023/05/08 04:50:29;;;;;;;17.25;13.02;;;12.80;99.90;;;;;;7302908;32;20223;-57
2023/05/08 04:54:31;;;;;;;15.27;13.68;;;12.90;99.90;;;;;;7304510;32;20119;-57
2023/05/08 04:58:33;;;;;;;16.20;13.57;;;13.10;99.90;;;;;;7302470;32;20140;-57
2023/05/08 05:02:35;;;;;;;15.13;13.30;;;13.20;99.90;;;;;;7300309;32;20108;-57
2023/05/08 05:06:36;;;;;;;15.82;13.57;;;13.40;99.90;;;;;;7305894;32;20470;-57
2023/05/08 05:10:38;;;;;;;19.42;13.82;;;13.40;99.90;;;;;;7299834;32;20285;-57
2023/05/08 05:14:40;;;;;;;16.45;13.45;;;13.50;99.90;;;;;;7307662;32;20257;-57
2023/05/08 05:18:42;;;;;;;15.10;12.90;;;13.60;99.90;;;;;;7302886;32;20099;-57
2023/05/08 05:22:43;;;;;;;14.95;13.32;;;13.60;99.90;;;;;;7306413;32;20309;-57
2023/05/08 05:26:45;;;;;;;15.15;13.02;;;13.70;99.90;;;;;;7298790;32;20104;-57
2023/05/08 05:30:47;;;;;;;13.82;12.43;;;13.80;99.90;;;;;;7306844;32;20103;-57
2023/05/08 05:34:49;;;;;;;15.38;12.73;;;13.90;99.90;;;;;;7302736;32;20273;-57
2023/05/08 05:38:51;;;;;;;14.40;12.90;;;13.90;99.90;;;;;;7303121;32;20181;-57
2023/05/08 05:42:53;;;;;;;14.20;12.55;;;14.00;99.90;;;;;;7307701;32;20134;-57
2023/05/08 05:46:54;;;;;;;13.45;12.05;;;14.00;99.90;;;;;;7306043;32;20183;-58
2023/05/08 05:50:56;;;;;;;14.35;12.85;;;14.10;99.90;;;;;;7304519;32;20253;-57
2023/05/08 05:54:58;;;;;;;14.73;12.05;;;14.20;99.90;;;;;;7303616;32;20581;-57
2023/05/08 05:59:00;;;;;;;13.05;11.68;;;14.10;99.90;;;;;;7307764;32;20554;-57
2023/05/08 06:03:01;;;;;;;14.93;12.57;;;14.20;99.90;;;;;;7308575;32;20107;-57
2023/05/08 06:07:03;;;;;;;17.58;13.23;;;14.30;99.90;;;;;;7309366;32;20225;-57
2023/05/08 06:11:05;;;;;;;12.75;10.93;;;14.40;99.90;;;;;;7304621;32;20314;-56
2023/05/08 06:15:08;;;;;;;12.80;11.60;;;14.40;99.90;;;;;;7307726;32;20119;-57
2023/05/08 06:19:10;;;;;;;15.40;11.70;;;14.50;99.90;;;;;;7305483;32;20170;-57
2023/05/08 06:23:12;;;;;;;12.88;10.52;;;14.50;99.90;;;;;;7302491;32;20104;-57
2023/05/08 06:27:14;;;;;;;12.35;11.15;;;14.60;99.90;;;;;;7308519;32;20223;-57
2023/05/08 06:31:15;;;;;;;14.57;11.57;;;14.70;99.90;;;;;;7307179;32;20095;-57
2023/05/08 06:35:18;;;;;;;14.77;10.57;;;14.80;99.90;;;;;;7309464;32;20138;-57
2023/05/08 06:39:20;;;;;;;12.25;10.32;;;14.80;99.90;;;;;;7306234;32;20249;-57
2023/05/08 06:43:21;;;;;;;12.23;9.52;;;14.90;99.90;;;;;;7303574;32;20103;-57
2023/05/08 06:47:23;;;;;;;10.43;9.43;;;15.10;99.90;;;;;;7305871;32;20422;-57
2023/05/08 06:51:26;;;;;;;9.55;8.55;;;15.10;99.90;;;;;;7308189;32;20254;-57
2023/05/08 06:55:27;;;;;;;8.80;7.85;;;15.40;99.90;;;;;;7310359;32;20095;-57
2023/05/08 06:59:29;;;;;;;8.38;7.57;;;15.60;99.90;;;;;;7317305;32;20104;-60
2023/05/08 07:03:31;;;;;;;7.90;7.20;;;15.50;99.90;;;;;;7304092;32;20241;-60
2023/05/08 07:07:33;;;;;;;8.38;7.43;;;15.70;99.90;;;;;;7309263;32;20100;-60
2023/05/08 07:11:34;;;;;;;8.10;7.30;;;15.70;99.90;;;;;;7307628;32;20166;-61
2023/05/08 07:15:37;;;;;;;8.30;7.53;;;15.80;99.90;;;;;;7302995;32;20104;-60
2023/05/08 07:19:40;;;;;;;9.07;8.00;;;15.80;99.90;;;;;;7309582;32;20255;-60
2023/05/08 07:23:42;;;;;;;8.32;7.35;;;15.90;99.90;;;;;;7305965;32;20227;-57
2023/05/08 07:27:43;;;;;;;8.38;7.45;;;16.10;99.90;;;;;;7304239;32;20313;-57
2023/05/08 07:31:47;;;;;;;9.38;8.38;;;16.20;99.90;;;;;;7310599;32;20179;-57
2023/05/08 07:35:49;;;;;;;8.25;7.32;;;16.50;99.90;;;;;;7305274;32;20582;-58
2023/05/08 07:39:50;;;;;;;6.60;6.00;;;16.90;99.90;;;;;;7301297;32;21912;-57
2023/05/08 07:43:52;;;;;;;7.37;6.65;;;16.90;99.90;;;;;;7301347;32;20152;-58
2023/05/08 07:47:56;;;;;;;11.65;6.65;;;16.90;99.90;;;;;;7303844;32;20195;-58
2023/05/08 07:51:58;;;;;;;8.85;7.20;;;17.00;99.90;;;;;;7302906;32;20149;-57
2023/05/08 07:55:59;;;;;;;8.60;7.07;;;16.90;99.90;;;;;;7308003;32;20180;-57
2023/05/08 08:00:01;;;;;;;8.20;7.10;;;16.80;99.90;;;;;;7299165;32;20127;-58
2023/05/08 08:04:03;;;;;;;10.00;7.28;;;16.80;99.90;;;;;;7301879;32;20646;-57
2023/05/08 08:08:05;;;;;;;7.95;7.20;;;16.80;99.90;;;;;;7298515;32;20233;-58
2023/05/08 08:12:07;;;;;;;7.43;6.70;;;16.80;99.90;;;;;;7302539;32;20197;-58
2023/05/08 08:16:09;;;;;;;7.53;6.70;;;16.90;99.90;;;;;;7299113;32;20096;-58
2023/05/08 08:20:11;;;;;;;5.80;5.22;;;17.10;99.90;;;;;;7302473;32;20206;-57
2023/05/08 08:24:12;;;;;;;9.35;5.93;;;17.30;99.90;;;;;;7297720;32;20171;-57
2023/05/08 08:28:14;;;;;;;6.50;5.90;;;17.20;99.90;;;;;;7294303;32;20257;-59
2023/05/08 08:32:16;;;;;;;5.60;5.10;;;17.20;99.90;;;;;;7295686;32;20743;-57
2023/05/08 08:36:17;;;;;;;5.18;4.68;;;17.10;99.90;;;;;;7299156;32;20127;-58
2023/05/08 08:40:19;;;;;;;4.68;4.10;;;17.50;99.90;;;;;;7298002;32;20512;-57
2023/05/08 08:44:21;;;;;;;4.50;4.10;;;17.60;99.90;;;;;;7299686;32;20157;-57
2023/05/08 08:48:28;;;;;;;5.03;3.53;;;17.90;99.90;;;;;;7301430;32;20542;-58
2023/05/08 08:52:38;;;;;;;4.37;3.78;;;18.00;99.90;;;;;;7298181;32;21231;-57
2023/05/08 08:56:43;;;;;;;11.25;4.15;;;18.20;99.90;;;;;;7297232;32;20675;-58
2023/05/08 09:00:46;;;;;;;4.35;3.95;;;18.10;99.90;;;;;;7300921;32;20127;-58
2023/05/08 09:04:51;;;;;;;4.82;3.50;;;17.90;99.90;;;;;;7299633;32;20159;-57
2023/05/08 09:08:59;;;;;;;6.53;4.47;;;17.90;99.90;;;;;;7296625;32;20174;-58
2023/05/08 09:13:02;;;;;;;5.60;5.10;;;17.70;99.90;;;;;;7299203;32;20192;-58
2023/05/08 09:17:04;;;;;;;7.25;5.20;;;17.70;99.90;;;;;;7297125;32;20244;-58
2023/05/08 09:21:06;;;;;;;7.37;4.90;;;17.80;99.90;;;;;;7301214;32;20133;-58
2023/05/08 09:25:08;;;;;;;5.05;4.65;;;17.70;99.90;;;;;;7302701;32;20151;-58
2023/05/08 09:29:11;;;;;;;6.00;4.53;;;17.70;99.90;;;;;;7304652;32;20119;-58
2023/05/08 09:33:13;;;;;;;6.90;4.35;;;17.80;99.90;;;;;;7298693;32;20219;-58
2023/05/08 09:37:14;;;;;;;5.25;3.83;;;17.60;99.90;;;;;;7311320;32;20320;-59
2023/05/08 09:41:16;;;;;;;4.18;3.78;;;17.60;99.90;;;;;;7306143;32;20107;-58
2023/05/08 09:45:30;;;;;;;5.72;4.30;;;17.40;99.90;;;;;;7305306;32;20224;-57
2023/05/08 09:49:31;;;;;;;6.80;4.22;;;17.50;99.90;;;;;;7308020;32;20119;-58
2023/05/08 09:53:33;;;;;;;6.40;3.87;;;17.30;99.90;;;;;;7307417;32;20136;-58
2023/05/08 09:57:38;;;;;;;5.20;3.70;;;17.40;99.90;;;;;;7305237;32;20112;-58
2023/05/08 10:01:39;;;;;;;4.90;3.95;;;17.40;99.90;;;;;;7300343;32;20199;-58
2023/05/08 10:05:41;;;;;;;7.95;5.18;;;17.50;99.90;;;;;;7296675;32;20734;-55
2023/05/08 10:09:58;;;;;;;4.87;4.40;;;17.50;99.90;;;;;;7299444;32;20134;-55
2023/05/08 10:14:00;;;;;;;5.30;4.40;;;17.80;99.90;;;;;;7298181;32;20128;-56
2023/05/08 10:18:07;;;;;;;6.00;4.70;;;18.00;99.90;;;;;;7290780;32;20283;-57
2023/05/08 10:22:12;;;;;;;6.35;4.32;;;18.00;99.90;;;;;;7298693;32;20146;-56
2023/05/08 10:26:30;;;;;;;6.20;4.78;;;18.10;99.90;;;;;;7296817;32;20229;-56
2023/05/08 10:30:34;;;;;;;6.53;5.10;;;18.20;99.90;;;;;;7294252;32;20261;-56
2023/05/08 10:34:51;;;;;;;7.60;5.28;;;18.40;99.90;;;;;;7301088;32;20737;-56
2023/05/08 10:38:53;;;;;;;6.45;4.60;;;18.60;99.90;;;;;;7300048;32;20258;-56
2023/05/08 10:42:56;;;;;;;5.62;5.03;;;18.70;99.90;;;;;;7295723;32;20297;-55
2023/05/08 10:47:07;;;;;;;6.85;5.10;;;18.80;99.90;;;;;;7298514;32;20284;-55
2023/05/08 10:51:32;;;;;;;5.10;4.60;;;18.90;99.90;;;;;;7295776;32;20291;-55
2023/05/08 10:55:39;;;;;;;5.25;4.75;;;19.10;99.90;;;;;;7296124;32;20681;-55
2023/05/08 10:59:47;;;;;;;7.37;4.55;;;19.50;99.90;;;;;;7294833;32;20281;-56
2023/05/08 11:03:51;;;;;;;5.43;4.43;;;20.00;99.90;;;;;;7301785;32;20236;-55
2023/05/08 11:07:53;;;;;;;4.70;4.22;;;20.90;99.90;;;;;;7299538;32;20218;-56
2023/05/08 11:12:07;;;;;;;4.03;3.35;;;21.50;99.90;;;;;;7308222;32;20228;-56
2023/05/08 11:16:10;;;;;;;4.75;3.30;;;22.10;99.90;;;;;;7295272;32;20491;-55
2023/05/08 11:20:12;;;;;;;3.85;3.22;;;22.30;99.90;;;;;;7298924;32;20340;-56
2023/05/08 11:24:15;;;;;;;3.28;2.37;;;22.30;99.90;;;;;;7303977;32;20844;-55
2023/05/08 11:28:16;;;;;;;2.40;2.15;;;22.40;99.90;;;;;;7297238;32;20171;-55
2023/05/08 11:32:18;;;;;;;3.85;2.55;;;22.00;99.90;;;;;;7303154;32;20131;-56
2023/05/08 11:36:21;;;;;;;3.15;2.12;;;22.40;99.90;;;;;;7294755;32;20218;-56
2023/05/08 11:41:01;;;;;;;2.80;2.45;;;22.30;99.90;;;;;;7301256;32;20227;-57
2023/05/08 11:45:08;;;;;;;2.58;2.35;;;22.40;99.90;;;;;;7297452;32;20134;-57
2023/05/08 11:49:17;;;;;;;3.28;2.37;;;23.10;99.90;;;;;;7300035;32;20139;-55
2023/05/08 11:53:23;;;;;;;4.37;2.45;;;24.10;99.90;;;;;;7298757;32;20562;-56
2023/05/08 11:57:26;;;;;;;6.30;2.10;;;24.30;99.90;;;;;;7298489;32;20269;-59
2023/05/08 12:01:29;;;;;;;2.28;1.85;;;24.80;99.90;;;;;;7299866;32;20111;-58
2023/05/08 12:05:31;;;;;;;5.75;2.20;;;25.60;99.90;;;;;;7299336;32;20749;-59
2023/05/08 12:09:33;;;;;;;2.58;1.95;;;24.90;99.90;;;;;;7300684;32;20126;-63
2023/05/08 12:13:34;;;;;;;3.35;1.90;;;24.80;99.90;;;;;;7294708;32;20619;-59
2023/05/08 12:17:36;;;;;;;2.97;1.60;;;24.80;99.90;;;;;;7298451;32;20115;-58
2023/05/08 12:21:46;;;;;;;3.00;2.25;;;24.40;99.90;;;;;;7297687;32;20318;-57
2023/05/08 12:25:54;;;;;;;3.15;2.35;;;24.10;99.90;;;;;;7298213;32;20096;-57
2023/05/08 12:29:56;;;;;;;2.85;2.22;;;23.70;99.90;;;;;;7299464;32;20195;-57
2023/05/08 12:33:58;;;;;;;2.53;2.10;;;23.20;99.90;;;;;;7291375;32;20252;-57
2023/05/08 12:38:05;;;;;;;3.95;2.30;;;22.60;99.90;;;;;;7298384;32;20593;-57
2023/05/08 12:42:07;;;;;;;;;;;22.40;99.90;;;;;;7300831;32;20150;-58
2023/05/08 12:46:11;;;;;;;4.10;2.60;;;22.30;99.90;;;;;;7303855;32;20021;-57
2023/05/08 12:50:17;;;;;;;3.47;2.80;;;22.10;99.90;;;;;;7296659;32;20210;-57
2023/05/08 12:54:19;;;;;;;3.12;2.40;;;22.10;99.90;;;;;;7295841;32;20221;-57
2023/05/08 12:58:25;;;;;;;3.37;2.15;;;21.90;99.90;;;;;;7297644;32;20093;-57
2023/05/08 13:02:27;;;;;;;3.87;2.33;;;21.80;99.90;;;;;;7301006;32;20165;-57
2023/05/08 13:06:30;;;;;;;3.80;2.55;;;21.70;99.90;;;;;;7300951;32;20119;-57
2023/05/08 13:11:03;;;;;;;4.65;2.58;;;21.50;99.90;;;;;;7298498;32;20108;-57
2023/05/08 13:15:05;;;;;;;4.32;2.53;;;21.50;99.90;;;;;;7291207;32;20303;-58
2023/05/08 13:19:07;;;;;;;5.62;2.30;;;21.30;99.90;;;;;;7293596;32;22123;-57
2023/05/08 13:23:09;;;;;;;3.10;2.22;;;21.30;99.90;;;;;;7303285;32;20099;-58
2023/05/08 13:27:12;;;;;;;2.97;2.22;;;21.40;99.90;;;;;;7299443;32;20096;-58
2023/05/08 13:31:14;;;;;;;3.00;2.17;;;21.40;99.90;;;;;;7299242;32;20182;-57
2023/05/08 13:35:16;;;;;;;2.85;2.10;;;21.60;99.90;;;;;;7296679;32;20202;-58
2023/05/08 13:39:18;;;;;;;3.78;2.25;;;21.70;99.90;;;;;;7291887;32;20222;-57
2023/05/08 13:43:20;;;;;;;2.05;1.50;;;22.00;99.90;;;;;;7301993;32;20234;-57
2023/05/08 13:47:22;;;;;;;1.87;1.70;;;22.50;99.90;;;;;;7306040;32;20551;-57
2023/05/08 13:51:23;;;;;;;2.35;1.48;;;23.20;99.90;;;;;;7316999;32;20255;-58
2023/05/08 13:55:25;;;;;;;2.25;2.03;;;23.40;99.90;;;;;;7308403;32;20209;-58
2023/05/08 13:59:27;;;;;;;3.20;2.60;;;23.40;99.90;;;;;;7300762;32;20183;-57
2023/05/08 14:03:29;;;;;;;2.72;2.35;;;22.90;99.90;;;;;;7302365;32;20108;-58
2023/05/08 14:07:30;;;;;;;3.42;2.87;;;22.50;99.90;;;;;;7311080;32;20554;-57
2023/05/08 14:11:32;;;;;;;3.90;3.50;;;21.70;99.90;;;;;;7302901;32;20618;-57
2023/05/08 14:15:35;;;;;;;5.30;3.62;;;21.70;99.90;;;;;;7307114;32;20153;-57
2023/05/08 14:19:38;;;;;;;6.03;3.42;;;21.70;99.90;;;;;;7319830;32;20163;-57
2023/05/08 14:23:40;;;;;;;2.20;1.80;;;22.50;99.90;;;;;;7303345;32;20177;-57
2023/05/08 14:27:41;;;;;;;2.12;1.80;;;23.30;99.90;;;;;;7307234;32;20490;-58
2023/05/08 14:31:44;;;;;;;3.20;1.80;;;24.10;99.90;;;;;;7312847;32;20641;-57
2023/05/08 14:35:47;;;;;;;4.82;2.83;;;24.90;99.90;;;;;;7304482;32;20642;-58
2023/05/08 14:39:52;;;;;;;3.83;2.67;;;25.00;99.90;;;;;;7309832;32;20248;-58
2023/05/08 14:43:54;;;;;;;4.65;3.12;;;24.90;99.90;;;;;;7306976;32;20130;-59
2023/05/08 14:47:56;;;;;;;2.80;2.50;;;23.60;99.90;;;;;;7312440;32;20168;-58
2023/05/08 14:51:58;;;;;;;4.12;2.58;;;24.20;99.90;;;;;;7304182;32;20119;-58
2023/05/08 14:55:59;;;;;;;3.58;2.70;;;25.50;99.90;;;;;;7315623;32;20157;-56
2023/05/08 15:00:03;;;;;;;4.22;2.65;;;25.30;99.90;;;;;;7308965;32;20195;-56
2023/05/08 15:04:04;;;;;;;5.93;3.08;;;24.40;99.90;;;;;;7304878;32;20155;-56
2023/05/08 15:08:07;;;;;;;3.80;2.83;;;24.90;99.90;;;;;;7303297;32;20194;-56
2023/05/08 15:12:09;;;;;;;4.25;3.75;;;24.50;99.90;;;;;;7308429;32;20188;-56
2023/05/08 15:16:10;;;;;;;5.90;4.12;;;22.80;99.90;;;;;;7308304;32;20202;-57
2023/05/08 15:20:12;;;;;;;4.75;4.32;;;22.40;99.90;;;;;;7318788;32;20145;-57
2023/05/08 15:24:14;;;;;;;5.97;4.00;;;21.50;99.90;;;;;;7303091;32;20132;-56
2023/05/08 15:28:15;;;;;;;5.32;4.00;;;21.50;99.90;;;;;;7309128;32;20188;-56
2023/05/08 15:32:17;;;;;;;6.12;3.90;;;21.30;99.90;;;;;;7307305;32;20233;-56
2023/05/08 15:36:19;;;;;;;6.68;4.40;;;20.70;99.90;;;;;;7306399;32;20186;-56
2023/05/08 15:40:20;;;;;;;5.10;4.07;;;20.60;99.90;;;;;;7309682;32;20565;-56
2023/05/08 15:44:22;;;;;;;5.60;4.22;;;20.60;99.90;;;;;;7312543;32;20134;-56
2023/05/08 15:48:27;;;;;;;6.12;4.82;;;20.30;99.90;;;;;;7302991;32;20124;-59
2023/05/08 15:52:28;;;;;;;5.47;4.97;;;19.60;99.90;;;;;;7303642;32;20107;-55
2023/05/08 15:56:30;;;;;;;6.95;6.25;;;19.20;99.90;;;;;;7306175;32;20320;-55
2023/05/08 16:00:32;;;;;;;5.60;5.00;;;18.90;99.90;;;;;;7292715;32;20850;-57
2023/05/08 16:04:45;;;;;;;7.75;5.85;;;19.10;99.90;;;;;;7300683;32;20279;-57
2023/05/08 16:08:47;;;;;;;7.35;5.95;;;19.20;99.90;;;;;;7296003;32;20130;-57
2023/05/08 16:12:49;;;;;;;6.65;5.55;;;18.90;99.90;;;;;;7310552;32;20159;-57
2023/05/08 16:16:51;;;;;;;11.15;6.43;;;19.20;99.90;;;;;;7315484;32;20574;-57
2023/05/08 16:20:52;;;;;;;7.25;6.10;;;19.30;99.90;;;;;;7314760;32;20198;-57
2023/05/08 16:24:54;;;;;;;7.72;6.75;;;19.30;99.90;;;;;;7311735;32;20129;-57
2023/05/08 16:28:56;;;;;;;9.23;6.68;;;19.30;99.90;;;;;;7320709;32;21517;-58
2023/05/08 16:32:57;;;;;;;8.70;6.87;;;19.00;99.90;;;;;;7310938;32;20123;-58
2023/05/08 16:36:59;;;;;;;9.25;8.35;;;19.10;99.90;;;;;;7312975;32;20186;-57
2023/05/08 16:41:06;;;;;;;8.77;7.70;;;19.20;99.90;;;;;;7311351;32;20117;-58
2023/05/08 16:45:08;;;;;;;8.32;7.18;;;19.00;99.90;;;;;;7315120;32;20121;-57
2023/05/08 16:49:09;;;;;;;10.27;7.35;;;19.00;99.90;;;;;;7310173;32;20617;-57
2023/05/08 16:53:11;;;;;;;9.85;6.93;;;18.90;99.90;;;;;;7311752;32;20108;-58
2023/05/08 16:57:13;;;;;;;13.77;9.20;;;18.80;99.90;;;;;;7310519;32;20637;-57
2023/05/08 17:01:15;;;;;;;9.55;8.57;;;18.50;99.90;;;;;;7313341;32;20135;-57
2023/05/08 17:05:17;;;;;;;9.43;7.95;;;18.50;99.90;;;;;;7308182;32;20131;-57
2023/05/08 17:09:19;;;;;;;10.48;7.53;;;18.50;99.90;;;;;;7304178;32;20429;-57
2023/05/08 17:13:21;;;;;;;10.35;7.35;;;18.50;99.90;;;;;;7300424;32;20108;-57
2023/05/08 17:17:23;;;;;;;11.75;7.87;;;18.40;99.90;;;;;;7302631;32;20134;-57
2023/05/08 17:21:24;;;;;;;9.07;8.18;;;18.40;99.90;;;;;;7301467;32;20399;-57
2023/05/08 17:25:26;;;;;;;8.07;7.28;;;18.60;99.90;;;;;;7313376;32;20845;-57
2023/05/08 17:29:28;;;;;;;9.90;7.53;;;18.40;99.90;;;;;;7305260;32;20217;-57
2023/05/08 17:33:29;;;;;;;13.15;10.55;;;18.30;99.90;;;;;;7299277;32;20175;-56
2023/05/08 17:37:31;;;;;;;8.80;7.87;;;18.20;99.90;;;;;;7315654;32;20103;-57
2023/05/08 17:41:33;;;;;;;8.32;7.53;;;18.10;99.90;;;;;;7299059;32;20116;-57
2023/05/08 17:45:35;;;;;;;8.02;7.20;;;18.10;99.90;;;;;;7305728;32;20203;-58
2023/05/08 17:49:36;;;;;;;9.55;7.10;;;18.10;99.90;;;;;;7306111;32;20187;-59
2023/05/08 17:53:39;;;;;;;8.80;7.18;;;18.10;99.90;;;;;;7297547;32;20662;-57
2023/05/08 17:57:40;;;;;;;9.88;7.47;;;18.00;99.90;;;;;;7295506;32;20498;-57
2023/05/08 18:01:42;;;;;;;10.45;7.18;;;18.00;99.90;;;;;;7308540;32;20179;-58
2023/05/08 18:05:44;;;;;;;9.65;8.20;;;18.00;99.90;;;;;;7295114;32;20108;-59
2023/05/08 18:09:46;;;;;;;8.93;7.85;;;17.90;99.90;;;;;;7296338;32;20956;-59
2023/05/08 18:13:48;;;;;;;8.30;7.50;;;17.90;99.90;;;;;;7301714;32;20132;-60
2023/05/08 18:17:52;;;;;;;8.80;7.40;;;17.90;99.90;;;;;;7305762;32;20234;-59
2023/05/08 18:21:54;;;;;;;8.20;6.90;;;17.80;99.90;;;;;;7296188;32;20231;-59
2023/05/08 18:25:55;;;;;;;8.25;6.95;;;17.80;99.90;;;;;;7304826;32;20126;-58
2023/05/08 18:29:57;;;;;;;10.02;7.28;;;17.80;99.90;;;;;;7308156;32;20178;-58
2023/05/08 18:33:59;;;;;;;8.27;6.55;;;17.60;99.90;;;;;;7304855;32;20170;-58
2023/05/08 18:38:01;;;;;;;7.12;5.70;;;17.60;99.90;;;;;;7304526;32;20320;-59
2023/05/08 18:42:02;;;;;;;7.47;5.93;;;17.60;99.90;;;;;;7302895;32;20122;-58
2023/05/08 18:46:12;;;;;;;10.10;6.50;;;17.50;99.90;;;;;;7301526;32;20153;-58
2023/05/08 18:50:14;;;;;;;6.95;5.57;;;17.50;99.90;;;;;;7299509;32;20366;-58
2023/05/08 18:54:16;;;;;;;6.25;5.65;;;17.40;99.90;;;;;;7297063;32;20266;-58
2023/05/08 18:58:18;;;;;;;7.55;5.60;;;17.40;99.90;;;;;;7297334;32;20104;-58
2023/05/08 19:02:20;;;;;;;5.95;5.15;;;17.30;99.90;;;;;;7299622;32;20290;-57
2023/05/08 19:06:21;;;;;;;5.85;5.22;;;17.10;99.90;;;;;;7296821;32;20277;-58
2023/05/08 19:10:23;;;;;;;6.40;5.70;;;17.10;99.90;;;;;;7301685;32;20348;-58
2023/05/08 19:14:25;;;;;;;6.85;5.25;;;17.10;99.90;;;;;;7297661;32;20228;-58
2023/05/08 19:18:28;;;;;;;6.53;5.32;;;16.90;99.90;;;;;;7299224;32;20519;-57
2023/05/08 19:22:30;;;;;;;8.05;5.50;;;16.90;99.90;;;;;;7301188;32;20138;-57
2023/05/08 19:26:35;;;;;;;6.68;5.87;;;16.80;99.90;;;;;;7298826;32;20115;-57
2023/05/08 19:30:37;;;;;;;7.32;5.22;;;16.70;99.90;;;;;;7305049;32;20985;-57
2023/05/08 19:34:38;;;;;;;6.90;5.85;;;16.60;99.90;;;;;;7295948;32;20132;-56
2023/05/08 19:38:40;;;;;;;7.65;5.97;;;16.50;99.90;;;;;;7313715;32;20126;-57
2023/05/08 19:42:45;;;;;;;5.70;4.90;;;16.60;99.90;;;;;;7298137;32;20211;-56
2023/05/08 19:46:49;;;;;;;6.70;6.00;;;16.40;99.90;;;;;;7296427;32;20236;-58
2023/05/08 19:50:50;;;;;;;10.05;6.20;;;16.40;99.90;;;;;;7300139;32;20100;-56
2023/05/08 19:54:56;;;;;;;7.97;5.53;;;16.30;99.90;;;;;;7307085;32;20119;-57
2023/05/08 19:58:58;;;;;;;6.80;6.10;;;16.30;99.90;;;;;;7299346;32;20186;-56
2023/05/08 20:02:59;;;;;;;8.25;6.00;;;16.30;99.90;;;;;;7295887;32;20207;-57
2023/05/08 20:07:01;;;;;;;6.37;5.78;;;16.30;99.90;;;;;;7301531;32;20210;-57
2023/05/08 20:11:05;;;;;;;8.05;5.57;;;16.20;99.90;;;;;;7295900;32;20748;-57
2023/05/08 20:15:08;;;;;;;7.10;6.32;;;16.10;99.90;;;;;;7294904;32;20214;-57
2023/05/08 20:19:09;;;;;;;7.20;5.80;;;16.10;99.90;;;;;;7302174;32;20177;-56
2023/05/08 20:23:11;;;;;;;6.40;5.37;;;16.00;99.90;;;;;;7300001;32;20159;-56
2023/05/08 20:27:13;;;;;;;7.00;5.60;;;16.00;99.90;;;;;;7300677;32;20163;-56
2023/05/08 20:31:15;;;;;;;11.07;6.18;;;16.00;99.90;;;;;;7307083;32;20401;-57
2023/05/08 20:35:17;;;;;;;9.25;6.25;;;15.90;99.90;;;;;;7299921;32;20092;-56
2023/05/08 20:39:19;;;;;;;7.57;6.78;;;15.90;99.90;;;;;;7298634;32;20110;-56
2023/05/08 20:43:21;;;;;;;7.85;6.55;;;15.80;99.90;;;;;;7302664;32;20423;-56
2023/05/08 20:47:22;;;;;;;7.75;6.00;;;15.90;99.90;;;;;;7304855;32;20136;-56
2023/05/08 20:51:25;;;;;;;6.75;6.05;;;15.90;99.90;;;;;;7310502;32;20107;-57
2023/05/08 20:57:18;;;;;;;8.43;7.22;;;15.80;99.90;;;;;;7372125;31;20290;-57
2023/05/08 21:01:20;;;;;;;7.25;6.55;;;15.90;99.90;;;;;;7343567;32;20174;-57
2023/05/08 21:05:22;;;;;;;6.80;6.18;;;15.90;99.90;;;;;;7346049;32;20446;-57